sensor_id;sensor_type;location;lat;lon;timestamp;temperature;humidity
5828;DHT22;42583;50.240;8.444;2023-06-26T00:07:15;23.00;47.00
5828;DHT22;42583;50.240;8.444;2023-06-26T00:22:16;23.00;46.90
5828;DHT22;42583;50.240;8.444;2023-06-26T00:37:17;23.00;46.80
5828;DHT22;42583;50.240;8.444;2023-06-26T00:52:22;22.90;47.00
5828;DHT22;42583;50.240;8.444;2023-06-26T01:07:24;22.70;47.30
5828;DHT22;42583;50.240;8.444;2023-06-26T01:37:31;22.40;46.90
5828;DHT22;42583;50.240;8.444;2023-06-26T01:52:46;22.40;46.40
5828;DHT22;42583;50.240;8.444;2023-06-26T02:07:49;22.50;45.30
5828;DHT22;42583;50.240;8.444;2023-06-26T02:22:51;22.40;45.30
5828;DHT22;42583;50.240;8.444;2023-06-26T02:37:51;22.40;45.00
5828;DHT22;42583;50.240;8.444;2023-06-26T02:52:52;22.30;46.50
5828;DHT22;42583;50.240;8.444;2023-06-26T03:07:52;22.20;46.50
5828;DHT22;42583;50.240;8.444;2023-06-26T03:22:53;22.10;46.70
5828;DHT22;42583;50.240;8.444;2023-06-26T03:37:54;22.20;47.50
5828;DHT22;42583;50.240;8.444;2023-06-26T03:52:54;22.20;47.80
5828;DHT22;42583;50.240;8.444;2023-06-26T04:07:55;22.20;47.90
5828;DHT22;42583;50.240;8.444;2023-06-26T04:22:55;22.20;48.30
5828;DHT22;42583;50.240;8.444;2023-06-26T04:37:56;22.20;48.50
5828;DHT22;42583;50.240;8.444;2023-06-26T04:52:57;22.20;48.60
5828;DHT22;42583;50.240;8.444;2023-06-26T05:07:57;22.20;48.90
5828;DHT22;42583;50.240;8.444;2023-06-26T05:22:58;22.20;49.10
5828;DHT22;42583;50.240;8.444;2023-06-26T05:37:59;22.10;49.40
5828;DHT22;42583;50.240;8.444;2023-06-26T05:53:00;22.00;49.70
5828;DHT22;42583;50.240;8.444;2023-06-26T06:08:03;22.30;48.90
5828;DHT22;42583;50.240;8.444;2023-06-26T06:23:04;22.80;48.40
5828;DHT22;42583;50.240;8.444;2023-06-26T06:38:04;23.10;47.50
5828;DHT22;42583;50.240;8.444;2023-06-26T06:53:05;23.40;46.60
5828;DHT22;42583;50.240;8.444;2023-06-26T07:08:05;23.80;47.40
5828;DHT22;42583;50.240;8.444;2023-06-26T07:23:06;24.30;47.40
5828;DHT22;42583;50.240;8.444;2023-06-26T07:38:07;24.80;48.10
5828;DHT22;42583;50.240;8.444;2023-06-26T07:53:07;25.20;47.30
5828;DHT22;42583;50.240;8.444;2023-06-26T08:08:08;25.60;47.50
5828;DHT22;42583;50.240;8.444;2023-06-26T08:23:09;25.80;47.60
5828;DHT22;42583;50.240;8.444;2023-06-26T08:38:10;25.20;49.60
5828;DHT22;42583;50.240;8.444;2023-06-26T08:53:14;25.40;51.00
5828;DHT22;42583;50.240;8.444;2023-06-26T09:08:16;25.70;49.70
5828;DHT22;42583;50.240;8.444;2023-06-26T09:23:17;25.70;51.40
5828;DHT22;42583;50.240;8.444;2023-06-26T09:38:17;26.50;51.00
5828;DHT22;42583;50.240;8.444;2023-06-26T09:53:20;27.10;49.80
5828;DHT22;42583;50.240;8.444;2023-06-26T10:08:21;27.60;49.80
5828;DHT22;42583;50.240;8.444;2023-06-26T10:23:23;28.10;47.10
5828;DHT22;42583;50.240;8.444;2023-06-26T10:38:48;28.40;46.00
5828;DHT22;42583;50.240;8.444;2023-06-26T10:53:56;28.40;47.40
5828;DHT22;42583;50.240;8.444;2023-06-26T11:24:07;29.00;46.20
5828;DHT22;42583;50.240;8.444;2023-06-26T11:39:08;28.90;47.80
5828;DHT22;42583;50.240;8.444;2023-06-26T11:54:09;28.80;47.50
5828;DHT22;42583;50.240;8.444;2023-06-26T12:09:10;29.30;47.00
5828;DHT22;42583;50.240;8.444;2023-06-26T12:24:20;28.80;47.10
5828;DHT22;42583;50.240;8.444;2023-06-26T12:39:21;28.10;47.60
5828;DHT22;42583;50.240;8.444;2023-06-26T12:54:21;28.90;46.60
5828;DHT22;42583;50.240;8.444;2023-06-26T13:09:23;28.90;46.40
5828;DHT22;42583;50.240;8.444;2023-06-26T13:24:25;29.30;45.40
5828;DHT22;42583;50.240;8.444;2023-06-26T13:39:25;28.40;45.70
5828;DHT22;42583;50.240;8.444;2023-06-26T13:54:26;28.40;44.70
5828;DHT22;42583;50.240;8.444;2023-06-26T14:09:26;28.80;43.60
5828;DHT22;42583;50.240;8.444;2023-06-26T14:24:27;28.30;42.50
5828;DHT22;42583;50.240;8.444;2023-06-26T14:39:28;27.80;41.50
5828;DHT22;42583;50.240;8.444;2023-06-26T14:54:28;27.50;40.90
5828;DHT22;42583;50.240;8.444;2023-06-26T15:09:29;27.10;40.70
5828;DHT22;42583;50.240;8.444;2023-06-26T15:24:30;26.80;41.00
5828;DHT22;42583;50.240;8.444;2023-06-26T15:39:30;26.30;40.80
5828;DHT22;42583;50.240;8.444;2023-06-26T15:54:31;25.90;40.80
5828;DHT22;42583;50.240;8.444;2023-06-26T16:09:31;25.40;40.60
5828;DHT22;42583;50.240;8.444;2023-06-26T16:24:32;24.90;40.50
5828;DHT22;42583;50.240;8.444;2023-06-26T16:39:34;24.40;41.60
5828;DHT22;42583;50.240;8.444;2023-06-26T16:54:34;24.10;41.90
5828;DHT22;42583;50.240;8.444;2023-06-26T17:09:35;23.90;42.50
5828;DHT22;42583;50.240;8.444;2023-06-26T17:24:36;23.50;42.20
5828;DHT22;42583;50.240;8.444;2023-06-26T17:39:36;22.90;42.60
5828;DHT22;42583;50.240;8.444;2023-06-26T17:54:37;22.50;42.80
5828;DHT22;42583;50.240;8.444;2023-06-26T18:09:37;22.10;42.60
5828;DHT22;42583;50.240;8.444;2023-06-26T18:24:39;21.70;42.50
5828;DHT22;42583;50.240;8.444;2023-06-26T18:39:40;21.30;43.10
5828;DHT22;42583;50.240;8.444;2023-06-26T18:54:41;20.90;43.50
5828;DHT22;42583;50.240;8.444;2023-06-26T19:09:42;20.50;43.90
5828;DHT22;42583;50.240;8.444;2023-06-26T19:24:42;20.30;44.20
5828;DHT22;42583;50.240;8.444;2023-06-26T19:39:43;20.00;44.50
5828;DHT22;42583;50.240;8.444;2023-06-26T19:54:43;19.70;44.80
5828;DHT22;42583;50.240;8.444;2023-06-26T20:09:44;19.40;45.00
5828;DHT22;42583;50.240;8.444;2023-06-26T20:24:44;19.20;45.20
5828;DHT22;42583;50.240;8.444;2023-06-26T20:39:45;19.00;45.30
5828;DHT22;42583;50.240;8.444;2023-06-26T20:54:46;18.80;45.20
5828;DHT22;42583;50.240;8.444;2023-06-26T21:09:48;18.70;45.40
5828;DHT22;42583;50.240;8.444;2023-06-26T21:24:48;18.40;45.70
5828;DHT22;42583;50.240;8.444;2023-06-26T21:39:50;18.30;46.60
5828;DHT22;42583;50.240;8.444;2023-06-26T21:54:51;18.20;46.40
5828;DHT22;42583;50.240;8.444;2023-06-26T22:09:51;17.90;46.50
5828;DHT22;42583;50.240;8.444;2023-06-26T22:24:52;17.70;47.40
5828;DHT22;42583;50.240;8.444;2023-06-26T22:39:53;17.60;46.70
5828;DHT22;42583;50.240;8.444;2023-06-26T22:54:53;17.40;47.00
5828;DHT22;42583;50.240;8.444;2023-06-26T23:09:54;17.20;47.00
5828;DHT22;42583;50.240;8.444;2023-06-26T23:24:54;17.00;47.30
5828;DHT22;42583;50.240;8.444;2023-06-26T23:39:57;16.90;47.80
5828;DHT22;42583;50.240;8.444;2023-06-26T23:55:10;16.70;48.20
